createdAt,value
2022-12-17T00:00:51.601Z,99136.81
2022-12-17T00:03:39.394Z,99114.34
2022-12-17T00:06:26.038Z,99154.34
2022-12-17T00:09:13.040Z,99092.53
2022-12-17T00:11:59.488Z,99112.06
2022-12-17T00:14:46.040Z,99127.09
2022-12-17T00:17:32.524Z,99188.13
2022-12-17T00:20:19.280Z,99168.63
2022-12-17T00:23:05.682Z,99178.59
2022-12-17T00:25:52.512Z,99120.97
2022-12-17T00:28:39.098Z,99119.66
2022-12-17T00:31:25.787Z,99179.81
2022-12-17T00:34:12.231Z,99103.41
2022-12-17T00:36:58.788Z,99146.78
2022-12-17T00:39:45.461Z,99141.44
2022-12-17T00:42:32.582Z,99172.38
2022-12-17T00:45:19.016Z,99172.94
2022-12-17T00:48:07.138Z,99185.41
2022-12-17T00:50:53.492Z,99136.06
2022-12-17T00:53:43.299Z,99159.84
2022-12-17T00:56:29.808Z,99133.38
2022-12-17T00:59:16.581Z,99181.44
2022-12-17T01:02:03.216Z,99189.97
2022-12-17T01:04:49.956Z,99189.88
2022-12-17T01:07:36.210Z,99189.06
2022-12-17T01:10:23.476Z,99191.44
2022-12-17T01:13:09.977Z,99190.81
2022-12-17T01:15:57.030Z,99143.03
2022-12-17T01:18:43.432Z,99202.47
2022-12-17T01:21:29.845Z,99188.75
2022-12-17T01:24:16.128Z,99195.06
2022-12-17T01:27:05.060Z,99178.16
2022-12-17T01:29:51.429Z,99190.66
2022-12-17T01:32:38.286Z,99187.91
2022-12-17T01:35:24.809Z,99179.78
2022-12-17T01:38:11.512Z,99192.41
2022-12-17T01:40:57.758Z,99132.84
2022-12-17T01:43:55.596Z,99170.19
2022-12-17T01:46:44.399Z,99198.25
2022-12-17T01:49:31.519Z,99191.06
2022-12-17T01:52:19.456Z,99186.13
2022-12-17T01:55:06.942Z,99170.56
2022-12-17T01:57:53.736Z,99157.34
2022-12-17T02:00:40.692Z,99216.56
2022-12-17T02:03:34.976Z,99216.78
2022-12-17T02:06:37.188Z,99207.41
2022-12-17T02:09:32.205Z,99199.22
2022-12-17T02:12:43.114Z,99220.75
2022-12-17T02:15:34.823Z,99226.44
2022-12-17T02:18:26.376Z,99226.59
2022-12-17T02:21:13.611Z,99217.09
2022-12-17T02:24:08.087Z,99224.81
2022-12-17T02:26:58.335Z,99233.91
2022-12-17T02:29:50.956Z,99252.03
2022-12-17T02:32:39.339Z,99250.97
2022-12-17T02:35:41.398Z,99239.97
2022-12-17T02:38:42.098Z,99249.13
2022-12-17T02:41:33.663Z,99233.75
2022-12-17T02:44:21.492Z,99173.06
2022-12-17T02:47:12.403Z,99156.19
2022-12-17T02:49:59.062Z,99224.22
2022-12-17T02:52:46.844Z,99221.75
2022-12-17T02:55:33.231Z,99164.22
2022-12-17T02:58:20.341Z,99215.03
2022-12-17T03:01:06.752Z,99211.94
2022-12-17T03:03:55.579Z,99197.81
2022-12-17T03:06:42.041Z,99201.22
2022-12-17T03:09:28.522Z,99191.31
2022-12-17T03:12:14.891Z,99192.34
2022-12-17T03:15:01.694Z,99203.13
2022-12-17T03:17:48.926Z,99206.13
2022-12-17T03:20:36.155Z,99196.25
2022-12-17T03:23:24.849Z,99155.41
2022-12-17T03:26:12.045Z,99150.22
2022-12-17T03:28:58.384Z,99202.53
2022-12-17T03:31:45.010Z,99207.31
2022-12-17T03:34:31.312Z,99210.31
2022-12-17T03:37:18.462Z,99189.16
2022-12-17T03:40:04.717Z,99221.19
2022-12-17T03:42:51.837Z,99214.69
2022-12-17T03:45:38.530Z,99217.53
2022-12-17T03:48:30.851Z,99207.66
2022-12-17T03:51:17.811Z,99247.28
2022-12-17T03:54:04.896Z,99249.03
2022-12-17T03:56:51.903Z,99260.31
2022-12-17T03:59:38.436Z,99252.53
2022-12-17T04:02:24.997Z,99220.53
2022-12-17T04:05:18.181Z,99296.41
2022-12-17T04:08:06.727Z,99268.97
2022-12-17T04:10:53.855Z,99308.09
2022-12-17T04:13:41.210Z,99318.56
2022-12-17T04:16:28.244Z,99268.09
2022-12-17T04:19:14.501Z,99345.53
2022-12-17T04:22:01.442Z,99328.16
2022-12-17T04:24:48.011Z,99299.56
2022-12-17T04:27:34.597Z,99275.56
2022-12-17T04:30:21.074Z,99255.22
2022-12-17T04:33:07.523Z,99257.47
2022-12-17T04:35:53.942Z,99258.88
2022-12-17T04:38:40.851Z,99257.47
2022-12-17T04:41:27.302Z,99284.66
2022-12-17T04:44:13.693Z,99267.09
2022-12-17T04:47:00.050Z,99297.09
2022-12-17T04:50:05.771Z,99307.59
2022-12-17T04:53:21.087Z,99308.44
2022-12-17T04:56:07.874Z,99276.19
2022-12-17T04:58:57.876Z,99319.28
2022-12-17T05:01:45.116Z,99286.75
2022-12-17T05:04:31.556Z,99318.94
2022-12-17T05:07:17.961Z,99314.34
2022-12-17T05:10:04.401Z,99338.44
2022-12-17T05:12:51.009Z,99322.94
2022-12-17T05:15:37.317Z,99323.09
2022-12-17T05:18:27.914Z,99325.63
2022-12-17T05:21:14.106Z,99325.19
2022-12-17T05:24:01.067Z,99316.59
2022-12-17T05:26:48.078Z,99325.31
2022-12-17T05:29:34.832Z,99327.56
2022-12-17T05:32:21.152Z,99318.38
2022-12-17T05:35:07.773Z,99338.41
2022-12-17T05:37:54.040Z,99327.16
2022-12-17T05:40:41.096Z,99327.44
2022-12-17T05:43:30.472Z,99321.88
2022-12-17T05:46:17.584Z,99314.13
2022-12-17T05:49:03.930Z,99293.63
2022-12-17T05:51:51.350Z,99312.16
2022-12-17T05:54:37.696Z,99311.38
2022-12-17T05:57:24.716Z,99328.72
2022-12-17T06:00:11.254Z,99324.25
2022-12-17T06:03:01.047Z,99326.22
2022-12-17T06:05:47.606Z,99339.59
2022-12-17T06:08:34.230Z,99340.66
2022-12-17T06:11:20.469Z,99331.16
2022-12-17T06:14:08.614Z,99323.34
2022-12-17T06:16:54.829Z,99342.63
2022-12-17T06:19:41.783Z,99317.16
2022-12-17T06:22:27.988Z,99340.97
2022-12-17T06:25:14.751Z,99344.00
2022-12-17T06:28:01.005Z,99328.00
2022-12-17T06:30:47.615Z,99344.78
2022-12-17T06:33:34.000Z,99315.34
2022-12-17T06:36:22.917Z,99364.66
2022-12-17T06:39:09.805Z,99372.56
2022-12-17T06:42:02.028Z,99348.44
2022-12-17T06:44:51.138Z,99393.16
2022-12-17T06:47:38.397Z,99406.69
2022-12-17T06:50:25.604Z,99416.78
2022-12-17T06:53:20.053Z,99421.47
2022-12-17T06:56:06.622Z,99370.69
2022-12-17T06:58:52.984Z,99428.94
2022-12-17T07:01:39.885Z,99361.84
2022-12-17T07:04:26.431Z,99384.09
2022-12-17T07:07:12.707Z,99383.31
2022-12-17T07:09:59.435Z,99430.19
2022-12-17T07:12:45.741Z,99441.91
2022-12-17T07:15:32.560Z,99430.19
2022-12-17T07:18:20.891Z,99437.91
2022-12-17T07:21:07.868Z,99452.56
2022-12-17T07:23:54.319Z,99299.38
2022-12-17T07:26:40.992Z,99435.00
2022-12-17T07:29:27.786Z,99397.41
2022-12-17T07:32:14.835Z,99440.88
2022-12-17T07:35:01.120Z,99440.69
2022-12-17T07:37:48.016Z,99434.66
2022-12-17T07:40:34.811Z,99403.34
2022-12-17T07:43:28.252Z,99461.91
2022-12-17T07:46:14.408Z,99462.97
2022-12-17T07:49:03.043Z,99465.75
2022-12-17T07:51:49.727Z,99467.47
2022-12-17T07:54:37.209Z,99463.25
2022-12-17T07:57:23.573Z,99449.19
2022-12-17T08:00:10.380Z,99475.16
2022-12-17T08:02:56.814Z,99500.63
2022-12-17T08:05:44.627Z,99481.94
2022-12-17T08:08:33.457Z,99499.78
2022-12-17T08:11:19.608Z,99485.72
2022-12-17T08:14:13.431Z,99434.00
2022-12-17T08:17:00.474Z,99452.69
2022-12-17T08:19:46.915Z,99488.06
2022-12-17T08:22:33.211Z,99506.28
2022-12-17T08:25:19.787Z,99517.09
2022-12-17T08:28:11.213Z,99520.38
2022-12-17T08:31:08.448Z,99515.84
2022-12-17T08:33:56.886Z,99505.63
2022-12-17T08:36:43.460Z,99526.69
2022-12-17T08:39:30.464Z,99472.03
2022-12-17T08:42:17.449Z,99529.41
2022-12-17T08:45:04.388Z,99538.06
2022-12-17T08:47:50.840Z,99541.50
2022-12-17T08:50:37.659Z,99548.34
2022-12-17T08:53:24.277Z,99533.91
2022-12-17T08:56:27.908Z,99517.41
2022-12-17T08:59:14.502Z,99524.25
2022-12-17T09:02:01.141Z,99493.13
2022-12-17T09:04:47.748Z,99530.16
2022-12-17T09:07:34.420Z,99520.91
2022-12-17T09:10:21.090Z,99463.81
2022-12-17T09:13:07.856Z,99512.78
2022-12-17T09:15:54.442Z,99521.31
2022-12-17T09:18:41.434Z,99528.66
2022-12-17T09:21:28.043Z,99528.72
2022-12-17T09:24:14.953Z,99469.03
2022-12-17T09:27:03.267Z,99484.22
2022-12-17T09:29:50.048Z,99536.31
2022-12-17T09:32:36.478Z,99513.91
2022-12-17T09:35:36.113Z,99500.59
2022-12-17T09:38:45.383Z,99521.72
2022-12-17T09:50:48.462Z,99529.09
2022-12-17T09:57:28.048Z,99534.81
2022-12-17T10:12:00.726Z,99560.13
2022-12-17T10:14:56.542Z,99559.56
2022-12-17T10:18:38.694Z,99564.31
2022-12-17T10:21:33.092Z,99571.56
2022-12-17T10:24:34.516Z,99519.78
2022-12-17T10:27:28.919Z,99553.94
2022-12-17T10:30:15.304Z,99510.75
2022-12-17T10:33:02.025Z,99565.13
2022-12-17T10:35:56.585Z,99564.28
2022-12-17T10:38:46.240Z,99559.69
2022-12-17T10:41:48.920Z,99561.78
2022-12-17T10:45:03.229Z,99562.59
2022-12-17T10:47:53.317Z,99539.88
2022-12-17T10:50:42.179Z,99539.78
2022-12-17T10:53:43.015Z,99543.25
2022-12-17T10:56:45.704Z,99542.50
2022-12-17T10:59:41.671Z,99542.50
2022-12-17T11:02:35.785Z,99539.31
2022-12-17T11:05:23.036Z,99535.94
2022-12-17T11:08:10.008Z,99532.63
2022-12-17T11:11:00.386Z,99547.16
2022-12-17T11:13:49.846Z,99553.94
2022-12-17T11:16:46.747Z,99544.81
2022-12-17T11:19:37.639Z,99551.78
2022-12-17T11:22:34.708Z,99559.59
2022-12-17T11:25:24.588Z,99566.59
2022-12-17T11:28:22.600Z,99551.69
2022-12-17T11:31:22.148Z,99565.63
2022-12-17T11:34:24.272Z,99508.81
2022-12-17T11:37:23.762Z,99565.44
2022-12-17T11:40:18.844Z,99565.34
2022-12-17T11:43:17.135Z,99572.25
2022-12-17T11:46:42.914Z,99578.19
2022-12-17T11:49:35.659Z,99562.19
2022-12-17T11:52:39.919Z,99530.69
2022-12-17T11:56:15.590Z,99592.56
2022-12-17T11:59:11.027Z,99609.00
2022-12-17T12:02:05.281Z,99594.69
2022-12-17T12:05:20.445Z,99611.19
2022-12-17T12:08:20.440Z,99610.84
2022-12-17T12:11:10.537Z,99572.91
2022-12-17T12:14:07.012Z,99594.53
2022-12-17T12:17:17.397Z,99596.50
2022-12-17T12:20:27.558Z,99583.72
2022-12-17T12:23:41.190Z,99563.41
2022-12-17T12:26:38.223Z,99607.56
2022-12-17T12:29:49.713Z,99590.09
2022-12-17T12:32:47.491Z,99607.97
2022-12-17T12:35:38.508Z,99601.19
2022-12-17T12:38:29.606Z,99618.13
2022-12-17T12:41:26.823Z,99628.88
2022-12-17T12:44:16.880Z,99631.16
2022-12-17T12:47:15.859Z,99638.19
2022-12-17T12:50:11.530Z,99645.00
2022-12-17T12:52:58.275Z,99642.38
2022-12-17T12:55:58.745Z,99647.03
2022-12-17T12:58:52.957Z,99647.44
2022-12-17T13:01:50.996Z,99591.78
2022-12-17T13:04:52.029Z,99639.97
2022-12-17T13:07:26.697Z,99647.03
2022-12-17T13:09:57.121Z,99650.81
2022-12-17T13:12:33.559Z,99640.75
2022-12-17T13:15:07.672Z,99664.97
2022-12-17T13:18:07.429Z,99658.97
2022-12-17T13:20:35.523Z,99660.16
2022-12-17T13:23:09.307Z,99677.38
2022-12-17T13:25:37.397Z,99659.31
2022-12-17T13:28:05.511Z,99561.06
2022-12-17T13:30:36.949Z,99672.97
2022-12-17T13:33:07.780Z,99703.41
2022-12-17T13:35:38.704Z,99692.34
2022-12-17T13:38:24.710Z,99695.38
2022-12-17T13:41:09.585Z,99699.47
2022-12-17T13:43:48.246Z,99664.84
2022-12-17T13:46:28.627Z,99711.63
2022-12-17T13:49:00.035Z,99718.91
2022-12-17T13:51:30.111Z,99713.88
2022-12-17T13:54:00.532Z,99684.88
2022-12-17T13:56:36.765Z,99726.25
2022-12-17T13:59:09.149Z,99718.38
2022-12-17T14:01:51.364Z,99712.06
2022-12-17T14:04:27.979Z,99693.56
2022-12-17T14:07:00.762Z,99730.00
2022-12-17T14:09:40.549Z,99724.75
2022-12-17T14:12:25.132Z,99706.63
2022-12-17T14:15:08.360Z,99750.66
2022-12-17T14:17:36.514Z,99740.53
2022-12-17T14:20:20.695Z,99752.25
2022-12-17T14:23:11.777Z,99753.53
2022-12-17T14:25:41.206Z,99749.34
2022-12-17T14:28:31.906Z,99743.31
2022-12-17T14:31:26.617Z,99743.88
2022-12-17T14:34:08.381Z,99747.69
2022-12-17T14:36:38.989Z,99747.66
2022-12-17T14:39:24.367Z,99722.81
2022-12-17T14:42:11.580Z,99712.69
2022-12-17T14:44:51.721Z,99719.41
2022-12-17T14:47:28.806Z,99767.66
2022-12-17T14:50:04.561Z,99726.00
2022-12-17T14:54:47.256Z,99742.75
2022-12-17T14:57:22.846Z,99795.84
2022-12-17T14:59:52.573Z,99794.22
2022-12-17T15:02:30.583Z,99781.41
2022-12-17T15:05:03.138Z,99737.47
2022-12-17T15:07:33.747Z,99791.56
2022-12-17T15:10:14.540Z,99797.75
2022-12-17T15:12:44.786Z,99735.44
2022-12-17T15:15:15.250Z,99787.81
2022-12-17T15:17:43.986Z,99799.09
2022-12-17T15:20:21.383Z,99801.63
2022-12-17T15:22:49.740Z,99802.47
2022-12-17T15:25:20.211Z,99814.19
2022-12-17T15:27:48.403Z,99790.53
2022-12-17T15:30:18.990Z,99815.63
2022-12-17T15:32:47.122Z,99807.00
2022-12-17T15:35:15.419Z,99846.06
2022-12-17T15:37:44.436Z,99838.78
2022-12-17T15:40:13.414Z,99845.75
2022-12-17T15:43:04.671Z,99848.91
2022-12-17T15:45:34.988Z,99855.31
2022-12-17T15:48:04.031Z,99844.69
2022-12-17T15:50:32.459Z,99855.78
2022-12-17T15:53:01.392Z,99856.81
2022-12-17T15:55:29.871Z,99808.59
2022-12-17T15:57:58.570Z,99861.03
2022-12-17T16:00:26.999Z,99859.97
2022-12-17T16:02:55.212Z,99857.97
2022-12-17T16:05:23.453Z,99854.84
2022-12-17T16:07:52.334Z,99811.78
2022-12-17T16:10:20.775Z,99850.38
2022-12-17T16:12:48.758Z,99847.00
2022-12-17T16:15:17.422Z,99837.97
2022-12-17T16:17:46.092Z,99869.06
2022-12-17T16:20:14.139Z,99878.53
2022-12-17T16:22:42.288Z,99883.63
2022-12-17T16:25:10.663Z,99890.38
2022-12-17T16:27:45.542Z,99893.16
2022-12-17T16:30:15.290Z,99854.22
2022-12-17T16:32:43.336Z,99918.97
2022-12-17T16:35:11.626Z,99915.34
2022-12-17T16:37:41.145Z,99915.38
2022-12-17T16:40:10.458Z,99810.94
2022-12-17T16:42:38.731Z,99912.81
2022-12-17T16:45:08.427Z,99920.53
2022-12-17T16:47:36.453Z,99897.75
2022-12-17T16:50:05.615Z,99945.41
2022-12-17T16:52:35.054Z,99947.13
2022-12-17T16:55:03.532Z,99948.06
2022-12-17T16:57:31.859Z,99897.28
2022-12-17T17:00:00.481Z,99946.94
2022-12-17T17:02:28.643Z,99947.75
2022-12-17T17:04:57.522Z,99948.78
2022-12-17T17:07:26.010Z,99955.56
2022-12-17T17:09:54.851Z,99955.50
2022-12-17T17:12:23.790Z,99966.97
2022-12-17T17:14:52.479Z,99955.75
2022-12-17T17:17:55.579Z,99901.44
2022-12-17T17:20:11.226Z,99966.97
2022-12-17T17:22:40.063Z,99932.41
2022-12-17T17:25:10.236Z,99974.44
2022-12-17T17:27:38.745Z,99984.38
2022-12-17T17:30:08.158Z,99981.28
2022-12-17T17:32:36.627Z,99991.47
2022-12-17T17:35:05.905Z,99936.22
2022-12-17T17:37:34.443Z,99939.81
2022-12-17T17:40:03.202Z,99994.41
2022-12-17T17:42:31.269Z,100001.44
2022-12-17T17:44:59.437Z,99947.56
2022-12-17T17:47:30.256Z,100016.28
2022-12-17T17:49:58.398Z,100012.53
2022-12-17T17:52:26.672Z,99967.41
2022-12-17T17:54:55.002Z,100006.63
2022-12-17T17:57:23.340Z,100016.19
2022-12-17T17:59:51.891Z,100027.94
2022-12-17T18:02:20.129Z,100045.47
2022-12-17T18:04:48.488Z,99987.47
2022-12-17T18:07:25.161Z,100034.41
2022-12-17T18:09:54.116Z,100050.63
2022-12-17T18:12:42.093Z,100031.88
2022-12-17T18:15:16.465Z,100047.34
2022-12-17T18:17:53.807Z,100050.53
2022-12-17T18:20:22.211Z,100046.41
2022-12-17T18:22:51.097Z,100014.97
2022-12-17T18:25:20.067Z,100060.94
2022-12-17T18:27:48.293Z,100044.81
2022-12-17T18:30:16.549Z,100045.59
2022-12-17T18:32:45.968Z,100012.66
2022-12-17T18:35:14.578Z,100057.84
2022-12-17T18:37:42.747Z,100070.06
2022-12-17T18:40:12.740Z,100082.06
2022-12-17T18:43:01.164Z,100091.69
2022-12-17T18:45:29.861Z,100092.41
2022-12-17T18:47:58.725Z,100087.41
2022-12-17T18:50:27.276Z,100043.72
2022-12-17T18:52:55.455Z,100106.78
2022-12-17T18:55:23.864Z,100094.28
2022-12-17T18:57:52.252Z,100103.81
2022-12-17T19:00:20.742Z,100094.56
2022-12-17T19:02:49.074Z,100106.44
2022-12-17T19:05:18.085Z,100074.25
2022-12-17T19:07:46.149Z,100118.44
2022-12-17T19:10:14.326Z,100121.06
2022-12-17T19:12:42.435Z,100140.03
2022-12-17T19:15:11.061Z,100141.16
2022-12-17T19:17:39.397Z,100088.34
2022-12-17T19:20:08.720Z,100133.41
2022-12-17T19:22:36.725Z,100087.63
2022-12-17T19:25:05.237Z,100106.41
2022-12-17T19:27:33.492Z,100167.03
2022-12-17T19:30:01.730Z,100174.88
2022-12-17T19:32:29.962Z,100174.06
2022-12-17T19:34:57.984Z,100145.22
2022-12-17T19:37:26.107Z,100167.28
2022-12-17T19:39:54.168Z,100164.06
2022-12-17T19:42:25.822Z,100142.75
2022-12-17T19:44:57.041Z,100143.56
2022-12-17T19:47:25.417Z,100183.75
2022-12-17T19:49:53.812Z,100194.19
2022-12-17T19:52:21.965Z,100187.06
2022-12-17T19:54:50.164Z,100142.97
2022-12-17T19:57:18.592Z,100194.13
2022-12-17T19:59:46.924Z,100190.66
2022-12-17T20:02:18.299Z,100207.97
2022-12-17T20:04:47.068Z,100189.06
2022-12-17T20:07:15.429Z,100207.19
2022-12-17T20:09:45.225Z,100169.59
2022-12-17T20:12:14.204Z,100224.38
2022-12-17T20:14:42.826Z,100208.25
2022-12-17T20:17:11.167Z,100227.09
2022-12-17T20:19:39.714Z,100232.38
2022-12-17T20:22:08.467Z,100190.41
2022-12-17T20:24:39.455Z,100180.34
2022-12-17T20:27:08.659Z,100257.34
2022-12-17T20:29:37.204Z,100241.94
2022-12-17T20:32:05.605Z,100234.25
2022-12-17T20:34:34.597Z,100254.56
2022-12-17T20:37:03.063Z,100259.63
2022-12-17T20:39:32.658Z,100251.22
2022-12-17T20:42:01.536Z,100269.38
2022-12-17T20:44:31.182Z,100270.16
2022-12-17T20:47:02.144Z,100273.78
2022-12-17T20:49:32.033Z,100275.41
2022-12-17T20:52:01.407Z,100281.50
2022-12-17T20:54:29.813Z,100277.03
2022-12-17T20:56:59.933Z,100293.47
2022-12-17T20:59:29.695Z,100304.13
2022-12-17T21:01:58.632Z,100232.41
2022-12-17T21:04:29.529Z,100316.13
2022-12-17T21:06:58.053Z,100320.69
2022-12-17T21:09:29.778Z,100323.34
2022-12-17T21:12:00.038Z,100336.41
2022-12-17T21:14:35.139Z,100314.19
2022-12-17T21:17:04.388Z,100348.78
2022-12-17T21:19:33.807Z,100339.31
2022-12-17T21:22:02.071Z,100362.53
2022-12-17T21:24:30.248Z,100298.50
2022-12-17T21:26:59.093Z,100361.06
2022-12-17T21:29:27.494Z,100310.63
2022-12-17T21:31:56.107Z,100378.44
2022-12-17T21:34:29.380Z,100383.63
2022-12-17T21:37:33.005Z,100377.81
2022-12-17T21:40:02.736Z,100378.69
2022-12-17T21:42:50.604Z,100370.16
2022-12-17T21:45:19.277Z,100372.69
2022-12-17T21:47:47.785Z,100399.28
2022-12-17T21:50:16.584Z,100352.22
2022-12-17T21:52:44.971Z,100399.59
2022-12-17T21:55:13.996Z,100402.09
2022-12-17T21:57:42.074Z,100344.25
2022-12-17T22:00:11.392Z,100395.72
2022-12-17T22:02:39.519Z,100331.44
2022-12-17T22:05:08.252Z,100355.50
2022-12-17T22:07:42.875Z,100361.84
2022-12-17T22:10:43.289Z,100416.50
2022-12-17T22:13:20.211Z,100414.72
2022-12-17T22:15:48.749Z,100427.78
2022-12-17T22:18:17.146Z,100433.78
2022-12-17T22:20:45.465Z,100446.72
2022-12-17T22:23:13.501Z,100381.78
2022-12-17T22:25:43.703Z,100455.50
2022-12-17T22:28:12.436Z,100460.56
2022-12-17T22:30:59.834Z,100458.91
2022-12-17T22:33:37.629Z,100470.91
2022-12-17T22:38:19.308Z,100364.88
2022-12-17T22:44:30.754Z,100478.72
2022-12-17T22:44:46.465Z,100471.78
2022-12-17T22:45:11.066Z,100468.53
2022-12-17T22:47:40.001Z,100484.31
2022-12-17T22:50:09.668Z,100497.09
2022-12-17T22:52:39.150Z,100506.72
2022-12-17T22:55:08.371Z,100460.41
2022-12-17T22:57:38.500Z,100520.50
2022-12-17T23:00:20.657Z,100512.69
2022-12-17T23:02:51.343Z,100519.50
2022-12-17T23:05:22.491Z,100518.09
2022-12-17T23:07:52.827Z,100530.16
2022-12-17T23:10:22.071Z,100526.63
2022-12-17T23:12:55.228Z,100519.84
2022-12-17T23:15:32.892Z,100463.28
2022-12-17T23:18:04.334Z,100541.44
2022-12-17T23:20:35.028Z,100532.09
2022-12-17T23:23:03.058Z,100523.41
2022-12-17T23:25:32.287Z,100530.34
2022-12-17T23:28:00.608Z,100532.88
2022-12-17T23:30:28.819Z,100538.88
2022-12-17T23:32:57.133Z,100545.81
2022-12-17T23:35:25.277Z,100528.56
2022-12-17T23:37:53.397Z,100562.94
2022-12-17T23:40:22.201Z,100528.78
2022-12-17T23:42:51.006Z,100547.59
2022-12-17T23:45:19.206Z,100579.38
2022-12-17T23:47:47.303Z,100578.63
2022-12-17T23:50:15.242Z,100589.72
2022-12-17T23:52:43.285Z,100593.97
2022-12-17T23:55:11.797Z,100519.50
2022-12-17T23:57:40.536Z,100588.28
